sensor_id;sensor_type;location;lat;lon;timestamp;P1;durP1;ratioP1;P2;durP2;ratioP2
10509;SDS011;5303;53.266;10.410;2023-02-23T00:01:38;27.60;;;15.23;;
10509;SDS011;5303;53.266;10.410;2023-02-23T00:04:05;27.47;;;15.87;;
10509;SDS011;5303;53.266;10.410;2023-02-23T00:06:31;28.07;;;16.50;;
10509;SDS011;5303;53.266;10.410;2023-02-23T00:08:58;27.70;;;17.03;;
10509;SDS011;5303;53.266;10.410;2023-02-23T00:11:26;26.00;;;14.77;;
10509;SDS011;5303;53.266;10.410;2023-02-23T00:13:52;27.70;;;16.27;;
10509;SDS011;5303;53.266;10.410;2023-02-23T00:16:22;27.27;;;15.73;;
10509;SDS011;5303;53.266;10.410;2023-02-23T00:21:19;29.90;;;15.60;;
10509;SDS011;5303;53.266;10.410;2023-02-23T00:23:53;27.53;;;15.37;;
10509;SDS011;5303;53.266;10.410;2023-02-23T00:26:23;25.50;;;15.70;;
10509;SDS011;5303;53.266;10.410;2023-02-23T00:28:52;25.93;;;15.17;;
10509;SDS011;5303;53.266;10.410;2023-02-23T00:31:18;30.13;;;16.60;;
10509;SDS011;5303;53.266;10.410;2023-02-23T00:33:49;26.03;;;14.73;;
10509;SDS011;5303;53.266;10.410;2023-02-23T00:36:17;27.83;;;15.87;;
10509;SDS011;5303;53.266;10.410;2023-02-23T00:38:43;27.27;;;16.03;;
10509;SDS011;5303;53.266;10.410;2023-02-23T00:41:10;24.43;;;15.07;;
10509;SDS011;5303;53.266;10.410;2023-02-23T00:43:38;24.90;;;15.30;;
10509;SDS011;5303;53.266;10.410;2023-02-23T00:46:15;25.07;;;13.70;;
10509;SDS011;5303;53.266;10.410;2023-02-23T00:48:42;24.30;;;14.80;;
10509;SDS011;5303;53.266;10.410;2023-02-23T00:51:09;24.40;;;15.07;;
10509;SDS011;5303;53.266;10.410;2023-02-23T00:53:35;30.17;;;15.80;;
10509;SDS011;5303;53.266;10.410;2023-02-23T00:56:02;23.53;;;14.67;;
10509;SDS011;5303;53.266;10.410;2023-02-23T00:58:29;29.07;;;16.13;;
10509;SDS011;5303;53.266;10.410;2023-02-23T01:00:55;22.67;;;14.67;;
10509;SDS011;5303;53.266;10.410;2023-02-23T01:03:23;25.27;;;16.37;;
10509;SDS011;5303;53.266;10.410;2023-02-23T01:05:52;25.63;;;16.60;;
10509;SDS011;5303;53.266;10.410;2023-02-23T01:08:19;25.60;;;14.90;;
10509;SDS011;5303;53.266;10.410;2023-02-23T01:10:46;23.83;;;15.67;;
10509;SDS011;5303;53.266;10.410;2023-02-23T01:13:17;27.23;;;16.60;;
10509;SDS011;5303;53.266;10.410;2023-02-23T01:15:46;31.60;;;15.77;;
10509;SDS011;5303;53.266;10.410;2023-02-23T01:18:13;31.20;;;16.60;;
10509;SDS011;5303;53.266;10.410;2023-02-23T01:20:40;23.10;;;14.87;;
10509;SDS011;5303;53.266;10.410;2023-02-23T01:23:05;31.27;;;16.63;;
10509;SDS011;5303;53.266;10.410;2023-02-23T01:25:32;26.83;;;16.47;;
10509;SDS011;5303;53.266;10.410;2023-02-23T01:27:59;25.53;;;15.67;;
10509;SDS011;5303;53.266;10.410;2023-02-23T01:30:25;25.17;;;15.67;;
10509;SDS011;5303;53.266;10.410;2023-02-23T01:32:50;28.67;;;16.40;;
10509;SDS011;5303;53.266;10.410;2023-02-23T01:35:16;27.90;;;15.10;;
10509;SDS011;5303;53.266;10.410;2023-02-23T01:37:41;30.47;;;16.17;;
10509;SDS011;5303;53.266;10.410;2023-02-23T01:40:09;26.23;;;14.40;;
10509;SDS011;5303;53.266;10.410;2023-02-23T01:42:40;24.63;;;16.07;;
10509;SDS011;5303;53.266;10.410;2023-02-23T01:47:51;29.40;;;15.73;;
10509;SDS011;5303;53.266;10.410;2023-02-23T01:50:25;27.70;;;15.33;;
10509;SDS011;5303;53.266;10.410;2023-02-23T01:52:54;26.37;;;14.23;;
10509;SDS011;5303;53.266;10.410;2023-02-23T01:55:20;24.47;;;13.93;;
10509;SDS011;5303;53.266;10.410;2023-02-23T01:58:21;25.20;;;15.93;;
10509;SDS011;5303;53.266;10.410;2023-02-23T02:00:44;24.17;;;14.33;;
10509;SDS011;5303;53.266;10.410;2023-02-23T02:03:23;24.63;;;15.67;;
10509;SDS011;5303;53.266;10.410;2023-02-23T02:05:52;26.17;;;15.13;;
10509;SDS011;5303;53.266;10.410;2023-02-23T02:08:18;28.57;;;16.53;;
10509;SDS011;5303;53.266;10.410;2023-02-23T02:10:47;26.70;;;15.10;;
10509;SDS011;5303;53.266;10.410;2023-02-23T02:13:19;28.37;;;14.80;;
10509;SDS011;5303;53.266;10.410;2023-02-23T02:15:54;26.73;;;14.27;;
10509;SDS011;5303;53.266;10.410;2023-02-23T02:24:41;29.20;;;15.47;;
10509;SDS011;5303;53.266;10.410;2023-02-23T02:41:35;26.50;;;15.10;;
10509;SDS011;5303;53.266;10.410;2023-02-23T02:47:21;25.60;;;14.00;;
10509;SDS011;5303;53.266;10.410;2023-02-23T02:53:06;21.57;;;13.93;;
10509;SDS011;5303;53.266;10.410;2023-02-23T02:55:33;27.27;;;15.60;;
10509;SDS011;5303;53.266;10.410;2023-02-23T02:58:04;22.17;;;14.57;;
10509;SDS011;5303;53.266;10.410;2023-02-23T03:00:50;30.33;;;14.67;;
10509;SDS011;5303;53.266;10.410;2023-02-23T03:03:41;25.47;;;14.73;;
10509;SDS011;5303;53.266;10.410;2023-02-23T03:06:32;24.03;;;14.67;;
10509;SDS011;5303;53.266;10.410;2023-02-23T03:09:31;26.63;;;14.70;;
10509;SDS011;5303;53.266;10.410;2023-02-23T03:12:25;25.60;;;13.70;;
10509;SDS011;5303;53.266;10.410;2023-02-23T03:15:20;25.13;;;14.17;;
10509;SDS011;5303;53.266;10.410;2023-02-23T03:18:26;24.17;;;14.10;;
10509;SDS011;5303;53.266;10.410;2023-02-23T03:21:27;23.57;;;13.03;;
10509;SDS011;5303;53.266;10.410;2023-02-23T03:27:24;25.67;;;13.77;;
10509;SDS011;5303;53.266;10.410;2023-02-23T03:30:36;28.23;;;15.17;;
10509;SDS011;5303;53.266;10.410;2023-02-23T03:33:31;34.17;;;16.03;;
10509;SDS011;5303;53.266;10.410;2023-02-23T03:36:25;36.10;;;16.27;;
10509;SDS011;5303;53.266;10.410;2023-02-23T03:42:05;31.87;;;15.97;;
10509;SDS011;5303;53.266;10.410;2023-02-23T03:44:53;29.63;;;16.27;;
10509;SDS011;5303;53.266;10.410;2023-02-23T03:47:40;32.47;;;17.43;;
10509;SDS011;5303;53.266;10.410;2023-02-23T03:50:36;36.57;;;17.13;;
10509;SDS011;5303;53.266;10.410;2023-02-23T03:53:25;34.67;;;17.10;;
10509;SDS011;5303;53.266;10.410;2023-02-23T03:56:15;32.83;;;16.13;;
10509;SDS011;5303;53.266;10.410;2023-02-23T03:59:03;30.83;;;17.60;;
10509;SDS011;5303;53.266;10.410;2023-02-23T04:01:50;35.53;;;17.83;;
10509;SDS011;5303;53.266;10.410;2023-02-23T04:04:37;34.00;;;17.97;;
10509;SDS011;5303;53.266;10.410;2023-02-23T04:07:23;36.17;;;18.03;;
10509;SDS011;5303;53.266;10.410;2023-02-23T04:10:08;32.33;;;17.43;;
10509;SDS011;5303;53.266;10.410;2023-02-23T04:13:06;39.03;;;18.50;;
10509;SDS011;5303;53.266;10.410;2023-02-23T04:18:29;39.23;;;19.73;;
10509;SDS011;5303;53.266;10.410;2023-02-23T04:20:57;43.30;;;18.80;;
10509;SDS011;5303;53.266;10.410;2023-02-23T04:23:24;36.93;;;18.80;;
10509;SDS011;5303;53.266;10.410;2023-02-23T04:25:50;43.07;;;20.13;;
10509;SDS011;5303;53.266;10.410;2023-02-23T04:28:16;35.97;;;19.60;;
10509;SDS011;5303;53.266;10.410;2023-02-23T04:30:42;41.83;;;20.80;;
10509;SDS011;5303;53.266;10.410;2023-02-23T04:33:08;42.20;;;20.10;;
10509;SDS011;5303;53.266;10.410;2023-02-23T04:35:33;36.33;;;18.73;;
10509;SDS011;5303;53.266;10.410;2023-02-23T04:37:59;38.33;;;18.63;;
10509;SDS011;5303;53.266;10.410;2023-02-23T04:40:25;43.53;;;21.13;;
10509;SDS011;5303;53.266;10.410;2023-02-23T04:42:51;40.80;;;20.77;;
10509;SDS011;5303;53.266;10.410;2023-02-23T04:45:17;43.03;;;21.50;;
10509;SDS011;5303;53.266;10.410;2023-02-23T04:47:43;37.80;;;21.43;;
10509;SDS011;5303;53.266;10.410;2023-02-23T04:50:09;38.27;;;19.23;;
10509;SDS011;5303;53.266;10.410;2023-02-23T04:52:35;38.00;;;19.93;;
10509;SDS011;5303;53.266;10.410;2023-02-23T04:55:01;32.80;;;19.10;;
10509;SDS011;5303;53.266;10.410;2023-02-23T04:57:27;36.60;;;20.80;;
10509;SDS011;5303;53.266;10.410;2023-02-23T04:59:53;38.50;;;20.23;;
10509;SDS011;5303;53.266;10.410;2023-02-23T05:02:18;37.17;;;19.93;;
10509;SDS011;5303;53.266;10.410;2023-02-23T05:04:43;37.00;;;21.27;;
10509;SDS011;5303;53.266;10.410;2023-02-23T05:07:09;35.70;;;19.70;;
10509;SDS011;5303;53.266;10.410;2023-02-23T05:09:34;33.47;;;18.97;;
10509;SDS011;5303;53.266;10.410;2023-02-23T05:11:59;40.00;;;20.67;;
10509;SDS011;5303;53.266;10.410;2023-02-23T05:14:25;41.73;;;20.90;;
10509;SDS011;5303;53.266;10.410;2023-02-23T05:16:51;37.10;;;20.50;;
10509;SDS011;5303;53.266;10.410;2023-02-23T05:19:16;37.70;;;20.17;;
10509;SDS011;5303;53.266;10.410;2023-02-23T05:21:42;37.23;;;20.10;;
10509;SDS011;5303;53.266;10.410;2023-02-23T05:24:07;37.17;;;18.80;;
10509;SDS011;5303;53.266;10.410;2023-02-23T05:26:33;36.30;;;19.23;;
10509;SDS011;5303;53.266;10.410;2023-02-23T05:28:58;35.37;;;20.53;;
10509;SDS011;5303;53.266;10.410;2023-02-23T05:31:23;33.80;;;20.03;;
10509;SDS011;5303;53.266;10.410;2023-02-23T05:33:50;38.90;;;20.17;;
10509;SDS011;5303;53.266;10.410;2023-02-23T05:36:16;40.27;;;20.60;;
10509;SDS011;5303;53.266;10.410;2023-02-23T05:38:43;33.00;;;19.40;;
10509;SDS011;5303;53.266;10.410;2023-02-23T05:41:11;37.60;;;20.87;;
10509;SDS011;5303;53.266;10.410;2023-02-23T05:43:38;38.90;;;20.53;;
10509;SDS011;5303;53.266;10.410;2023-02-23T05:46:11;32.47;;;19.50;;
10509;SDS011;5303;53.266;10.410;2023-02-23T05:48:39;39.07;;;19.90;;
10509;SDS011;5303;53.266;10.410;2023-02-23T05:51:06;34.73;;;19.90;;
10509;SDS011;5303;53.266;10.410;2023-02-23T05:53:33;33.37;;;19.77;;
10509;SDS011;5303;53.266;10.410;2023-02-23T05:55:59;37.57;;;20.07;;
10509;SDS011;5303;53.266;10.410;2023-02-23T05:58:25;35.57;;;19.33;;
10509;SDS011;5303;53.266;10.410;2023-02-23T06:00:51;30.73;;;18.47;;
10509;SDS011;5303;53.266;10.410;2023-02-23T06:03:17;35.00;;;19.17;;
10509;SDS011;5303;53.266;10.410;2023-02-23T06:05:47;32.20;;;19.77;;
10509;SDS011;5303;53.266;10.410;2023-02-23T06:08:21;30.57;;;17.83;;
10509;SDS011;5303;53.266;10.410;2023-02-23T06:10:46;34.77;;;19.33;;
10509;SDS011;5303;53.266;10.410;2023-02-23T06:13:12;29.57;;;18.53;;
10509;SDS011;5303;53.266;10.410;2023-02-23T06:15:38;30.53;;;19.07;;
10509;SDS011;5303;53.266;10.410;2023-02-23T06:18:04;30.90;;;19.13;;
10509;SDS011;5303;53.266;10.410;2023-02-23T06:20:29;36.67;;;21.63;;
10509;SDS011;5303;53.266;10.410;2023-02-23T06:22:54;37.23;;;21.63;;
10509;SDS011;5303;53.266;10.410;2023-02-23T06:25:21;39.20;;;20.97;;
10509;SDS011;5303;53.266;10.410;2023-02-23T06:27:47;40.87;;;22.47;;
10509;SDS011;5303;53.266;10.410;2023-02-23T06:30:12;42.43;;;22.43;;
10509;SDS011;5303;53.266;10.410;2023-02-23T06:32:38;36.17;;;21.97;;
10509;SDS011;5303;53.266;10.410;2023-02-23T06:35:04;37.53;;;21.30;;
10509;SDS011;5303;53.266;10.410;2023-02-23T06:37:30;39.27;;;21.80;;
10509;SDS011;5303;53.266;10.410;2023-02-23T06:39:56;37.67;;;22.17;;
10509;SDS011;5303;53.266;10.410;2023-02-23T06:42:22;43.27;;;23.50;;
10509;SDS011;5303;53.266;10.410;2023-02-23T06:44:47;40.53;;;23.30;;
10509;SDS011;5303;53.266;10.410;2023-02-23T06:47:12;41.50;;;22.57;;
10509;SDS011;5303;53.266;10.410;2023-02-23T06:49:38;41.13;;;21.47;;
10509;SDS011;5303;53.266;10.410;2023-02-23T06:52:04;46.83;;;23.77;;
10509;SDS011;5303;53.266;10.410;2023-02-23T06:54:30;37.00;;;21.27;;
10509;SDS011;5303;53.266;10.410;2023-02-23T06:56:58;42.37;;;23.33;;
10509;SDS011;5303;53.266;10.410;2023-02-23T06:59:23;44.77;;;24.27;;
10509;SDS011;5303;53.266;10.410;2023-02-23T07:01:48;42.50;;;23.30;;
10509;SDS011;5303;53.266;10.410;2023-02-23T07:04:14;45.07;;;23.73;;
10509;SDS011;5303;53.266;10.410;2023-02-23T07:06:39;42.30;;;23.57;;
10509;SDS011;5303;53.266;10.410;2023-02-23T07:09:04;46.83;;;24.43;;
10509;SDS011;5303;53.266;10.410;2023-02-23T07:11:29;46.77;;;25.23;;
10509;SDS011;5303;53.266;10.410;2023-02-23T07:13:58;50.10;;;27.50;;
10509;SDS011;5303;53.266;10.410;2023-02-23T07:16:25;45.90;;;26.13;;
10509;SDS011;5303;53.266;10.410;2023-02-23T07:18:54;53.90;;;27.20;;
10509;SDS011;5303;53.266;10.410;2023-02-23T07:21:19;46.63;;;25.77;;
10509;SDS011;5303;53.266;10.410;2023-02-23T07:23:45;54.13;;;26.87;;
10509;SDS011;5303;53.266;10.410;2023-02-23T07:26:13;46.43;;;25.77;;
10509;SDS011;5303;53.266;10.410;2023-02-23T07:28:39;44.97;;;26.30;;
10509;SDS011;5303;53.266;10.410;2023-02-23T07:31:05;45.97;;;24.70;;
10509;SDS011;5303;53.266;10.410;2023-02-23T07:33:30;41.20;;;24.17;;
10509;SDS011;5303;53.266;10.410;2023-02-23T07:35:56;51.13;;;25.30;;
10509;SDS011;5303;53.266;10.410;2023-02-23T07:38:22;47.20;;;26.87;;
10509;SDS011;5303;53.266;10.410;2023-02-23T07:40:48;51.33;;;26.77;;
10509;SDS011;5303;53.266;10.410;2023-02-23T07:43:14;47.43;;;26.97;;
10509;SDS011;5303;53.266;10.410;2023-02-23T07:45:40;52.53;;;28.37;;
10509;SDS011;5303;53.266;10.410;2023-02-23T07:48:06;47.30;;;25.70;;
10509;SDS011;5303;53.266;10.410;2023-02-23T07:50:31;50.90;;;26.60;;
10509;SDS011;5303;53.266;10.410;2023-02-23T07:52:57;49.63;;;27.43;;
10509;SDS011;5303;53.266;10.410;2023-02-23T07:55:22;48.73;;;27.70;;
10509;SDS011;5303;53.266;10.410;2023-02-23T07:57:47;50.47;;;27.73;;
10509;SDS011;5303;53.266;10.410;2023-02-23T08:00:13;55.30;;;28.97;;
10509;SDS011;5303;53.266;10.410;2023-02-23T08:02:38;49.23;;;26.20;;
10509;SDS011;5303;53.266;10.410;2023-02-23T08:05:04;49.83;;;26.07;;
10509;SDS011;5303;53.266;10.410;2023-02-23T08:07:30;51.77;;;28.13;;
10509;SDS011;5303;53.266;10.410;2023-02-23T08:09:57;53.37;;;29.80;;
10509;SDS011;5303;53.266;10.410;2023-02-23T08:12:23;52.47;;;29.57;;
10509;SDS011;5303;53.266;10.410;2023-02-23T08:14:48;51.90;;;27.07;;
10509;SDS011;5303;53.266;10.410;2023-02-23T08:17:14;51.73;;;28.80;;
10509;SDS011;5303;53.266;10.410;2023-02-23T08:19:39;53.83;;;28.73;;
10509;SDS011;5303;53.266;10.410;2023-02-23T08:22:05;54.30;;;28.50;;
10509;SDS011;5303;53.266;10.410;2023-02-23T08:24:30;60.70;;;30.13;;
10509;SDS011;5303;53.266;10.410;2023-02-23T08:26:56;54.97;;;29.40;;
10509;SDS011;5303;53.266;10.410;2023-02-23T08:29:22;56.50;;;30.80;;
10509;SDS011;5303;53.266;10.410;2023-02-23T08:31:48;53.00;;;28.10;;
10509;SDS011;5303;53.266;10.410;2023-02-23T08:34:15;55.67;;;29.80;;
10509;SDS011;5303;53.266;10.410;2023-02-23T08:36:41;57.93;;;30.93;;
10509;SDS011;5303;53.266;10.410;2023-02-23T08:39:06;52.30;;;29.03;;
10509;SDS011;5303;53.266;10.410;2023-02-23T08:41:33;55.87;;;30.03;;
10509;SDS011;5303;53.266;10.410;2023-02-23T08:43:59;60.30;;;31.30;;
10509;SDS011;5303;53.266;10.410;2023-02-23T08:46:24;54.53;;;30.10;;
10509;SDS011;5303;53.266;10.410;2023-02-23T08:48:49;56.27;;;30.77;;
10509;SDS011;5303;53.266;10.410;2023-02-23T08:51:15;60.50;;;32.70;;
10509;SDS011;5303;53.266;10.410;2023-02-23T08:53:40;52.57;;;30.13;;
10509;SDS011;5303;53.266;10.410;2023-02-23T08:56:06;56.60;;;31.70;;
10509;SDS011;5303;53.266;10.410;2023-02-23T08:58:32;56.13;;;30.33;;
10509;SDS011;5303;53.266;10.410;2023-02-23T09:00:59;49.67;;;29.27;;
10509;SDS011;5303;53.266;10.410;2023-02-23T09:03:24;54.77;;;29.83;;
10509;SDS011;5303;53.266;10.410;2023-02-23T09:05:52;54.70;;;31.20;;
10509;SDS011;5303;53.266;10.410;2023-02-23T09:08:18;52.37;;;29.57;;
10509;SDS011;5303;53.266;10.410;2023-02-23T09:10:43;53.00;;;29.97;;
10509;SDS011;5303;53.266;10.410;2023-02-23T09:13:09;46.20;;;27.93;;
10509;SDS011;5303;53.266;10.410;2023-02-23T09:15:36;46.83;;;27.40;;
10509;SDS011;5303;53.266;10.410;2023-02-23T09:18:03;45.03;;;26.97;;
10509;SDS011;5303;53.266;10.410;2023-02-23T09:20:29;47.30;;;26.60;;
10509;SDS011;5303;53.266;10.410;2023-02-23T09:22:55;47.50;;;27.23;;
10509;SDS011;5303;53.266;10.410;2023-02-23T09:25:20;46.53;;;26.83;;
10509;SDS011;5303;53.266;10.410;2023-02-23T09:27:47;46.43;;;26.07;;
10509;SDS011;5303;53.266;10.410;2023-02-23T09:30:14;42.73;;;25.93;;
10509;SDS011;5303;53.266;10.410;2023-02-23T09:32:51;41.63;;;25.00;;
10509;SDS011;5303;53.266;10.410;2023-02-23T09:35:18;38.00;;;23.53;;
10509;SDS011;5303;53.266;10.410;2023-02-23T09:37:46;39.43;;;22.27;;
10509;SDS011;5303;53.266;10.410;2023-02-23T09:40:16;37.27;;;23.07;;
10509;SDS011;5303;53.266;10.410;2023-02-23T09:42:46;36.17;;;20.87;;
10509;SDS011;5303;53.266;10.410;2023-02-23T09:45:18;39.20;;;22.53;;
10509;SDS011;5303;53.266;10.410;2023-02-23T09:48:13;36.60;;;22.13;;
10509;SDS011;5303;53.266;10.410;2023-02-23T09:50:41;34.37;;;22.43;;
10509;SDS011;5303;53.266;10.410;2023-02-23T09:55:54;35.53;;;21.93;;
10509;SDS011;5303;53.266;10.410;2023-02-23T10:04:53;28.47;;;18.80;;
10509;SDS011;5303;53.266;10.410;2023-02-23T10:07:21;26.30;;;17.57;;
10509;SDS011;5303;53.266;10.410;2023-02-23T10:21:15;21.87;;;15.00;;
10509;SDS011;5303;53.266;10.410;2023-02-23T10:26:53;21.27;;;14.07;;
10509;SDS011;5303;53.266;10.410;2023-02-23T10:29:20;19.33;;;14.27;;
10509;SDS011;5303;53.266;10.410;2023-02-23T10:31:47;22.77;;;15.53;;
10509;SDS011;5303;53.266;10.410;2023-02-23T10:34:15;21.23;;;13.57;;
10509;SDS011;5303;53.266;10.410;2023-02-23T10:39:14;22.07;;;14.10;;
10509;SDS011;5303;53.266;10.410;2023-02-23T10:41:39;20.77;;;14.67;;
10509;SDS011;5303;53.266;10.410;2023-02-23T10:44:09;18.77;;;12.90;;
10509;SDS011;5303;53.266;10.410;2023-02-23T10:46:41;17.37;;;13.03;;
10509;SDS011;5303;53.266;10.410;2023-02-23T10:49:09;17.65;;;13.73;;
10509;SDS011;5303;53.266;10.410;2023-02-23T10:51:41;18.57;;;13.30;;
10509;SDS011;5303;53.266;10.410;2023-02-23T10:57:03;13.80;;;10.33;;
10509;SDS011;5303;53.266;10.410;2023-02-23T10:59:31;15.63;;;10.33;;
10509;SDS011;5303;53.266;10.410;2023-02-23T11:01:57;13.40;;;10.23;;
10509;SDS011;5303;53.266;10.410;2023-02-23T11:07:12;12.97;;;9.97;;
10509;SDS011;5303;53.266;10.410;2023-02-23T11:09:40;13.43;;;9.70;;
10509;SDS011;5303;53.266;10.410;2023-02-23T11:12:22;15.13;;;10.63;;
10509;SDS011;5303;53.266;10.410;2023-02-23T11:14:53;18.67;;;11.87;;
10509;SDS011;5303;53.266;10.410;2023-02-23T11:17:24;20.03;;;12.23;;
10509;SDS011;5303;53.266;10.410;2023-02-23T11:19:50;20.67;;;12.57;;
10509;SDS011;5303;53.266;10.410;2023-02-23T11:22:18;22.13;;;13.80;;
10509;SDS011;5303;53.266;10.410;2023-02-23T11:24:47;21.30;;;13.13;;
10509;SDS011;5303;53.266;10.410;2023-02-23T11:27:20;24.60;;;14.10;;
10509;SDS011;5303;53.266;10.410;2023-02-23T11:29:50;24.73;;;14.43;;
10509;SDS011;5303;53.266;10.410;2023-02-23T11:32:20;29.57;;;15.80;;
10509;SDS011;5303;53.266;10.410;2023-02-23T11:34:49;29.40;;;17.80;;
10509;SDS011;5303;53.266;10.410;2023-02-23T11:37:35;33.17;;;18.00;;
10509;SDS011;5303;53.266;10.410;2023-02-23T11:40:01;33.27;;;18.77;;
10509;SDS011;5303;53.266;10.410;2023-02-23T11:42:41;38.37;;;20.87;;
10509;SDS011;5303;53.266;10.410;2023-02-23T11:45:19;42.33;;;21.93;;
10509;SDS011;5303;53.266;10.410;2023-02-23T11:47:47;45.47;;;23.33;;
10509;SDS011;5303;53.266;10.410;2023-02-23T11:50:21;43.30;;;22.33;;
10509;SDS011;5303;53.266;10.410;2023-02-23T11:52:48;42.30;;;22.50;;
10509;SDS011;5303;53.266;10.410;2023-02-23T11:55:20;49.27;;;24.17;;
10509;SDS011;5303;53.266;10.410;2023-02-23T11:57:45;52.17;;;26.43;;
10509;SDS011;5303;53.266;10.410;2023-02-23T12:00:34;101.87;;;60.60;;
10509;SDS011;5303;53.266;10.410;2023-02-23T12:02:59;72.13;;;32.03;;
10509;SDS011;5303;53.266;10.410;2023-02-23T12:05:27;72.07;;;32.33;;
10509;SDS011;5303;53.266;10.410;2023-02-23T12:10:42;76.77;;;31.93;;
10509;SDS011;5303;53.266;10.410;2023-02-23T12:13:19;79.77;;;31.90;;
10509;SDS011;5303;53.266;10.410;2023-02-23T12:20:57;86.97;;;37.07;;
10509;SDS011;5303;53.266;10.410;2023-02-23T12:23:28;75.07;;;34.97;;
10509;SDS011;5303;53.266;10.410;2023-02-23T12:26:03;81.40;;;34.70;;
10509;SDS011;5303;53.266;10.410;2023-02-23T12:31:33;78.77;;;35.33;;
10509;SDS011;5303;53.266;10.410;2023-02-23T12:34:12;85.23;;;35.67;;
10509;SDS011;5303;53.266;10.410;2023-02-23T12:36:46;83.63;;;33.57;;
10509;SDS011;5303;53.266;10.410;2023-02-23T12:44:52;77.77;;;33.37;;
10509;SDS011;5303;53.266;10.410;2023-02-23T12:50:00;75.23;;;31.97;;
10509;SDS011;5303;53.266;10.410;2023-02-23T12:52:32;74.63;;;31.53;;
10509;SDS011;5303;53.266;10.410;2023-02-23T12:55:02;67.40;;;30.67;;
10509;SDS011;5303;53.266;10.410;2023-02-23T12:57:34;79.77;;;33.63;;
10509;SDS011;5303;53.266;10.410;2023-02-23T13:03:13;97.50;;;36.70;;
10509;SDS011;5303;53.266;10.410;2023-02-23T13:06:01;95.93;;;37.33;;
10509;SDS011;5303;53.266;10.410;2023-02-23T13:08:29;90.77;;;37.23;;
10509;SDS011;5303;53.266;10.410;2023-02-23T13:11:05;99.87;;;41.43;;
10509;SDS011;5303;53.266;10.410;2023-02-23T13:16:33;96.87;;;37.00;;
10509;SDS011;5303;53.266;10.410;2023-02-23T13:19:17;105.30;;;38.50;;
10509;SDS011;5303;53.266;10.410;2023-02-23T13:21:48;101.03;;;38.73;;
10509;SDS011;5303;53.266;10.410;2023-02-23T13:24:36;105.07;;;36.83;;
10509;SDS011;5303;53.266;10.410;2023-02-23T13:32:10;106.53;;;37.83;;
10509;SDS011;5303;53.266;10.410;2023-02-23T13:34:47;95.40;;;35.47;;
10509;SDS011;5303;53.266;10.410;2023-02-23T13:37:30;111.80;;;42.13;;
10509;SDS011;5303;53.266;10.410;2023-02-23T13:45:37;96.93;;;35.67;;
10509;SDS011;5303;53.266;10.410;2023-02-23T13:48:24;105.65;;;43.42;;
10509;SDS011;5303;53.266;10.410;2023-02-23T13:50:55;94.37;;;36.40;;
10509;SDS011;5303;53.266;10.410;2023-02-23T13:53:37;89.67;;;34.93;;
10509;SDS011;5303;53.266;10.410;2023-02-23T13:56:09;87.30;;;34.60;;
10509;SDS011;5303;53.266;10.410;2023-02-23T13:58:46;88.00;;;32.17;;
10509;SDS011;5303;53.266;10.410;2023-02-23T14:01:21;90.87;;;39.47;;
10509;SDS011;5303;53.266;10.410;2023-02-23T14:03:54;89.20;;;33.57;;
10509;SDS011;5303;53.266;10.410;2023-02-23T14:06:22;79.17;;;32.23;;
10509;SDS011;5303;53.266;10.410;2023-02-23T14:08:52;81.90;;;32.60;;
10509;SDS011;5303;53.266;10.410;2023-02-23T14:11:26;86.13;;;33.87;;
10509;SDS011;5303;53.266;10.410;2023-02-23T14:14:01;78.27;;;30.60;;
10509;SDS011;5303;53.266;10.410;2023-02-23T14:16:27;76.93;;;31.60;;
10509;SDS011;5303;53.266;10.410;2023-02-23T14:21:49;85.07;;;34.07;;
10509;SDS011;5303;53.266;10.410;2023-02-23T14:24:23;74.40;;;30.47;;
10509;SDS011;5303;53.266;10.410;2023-02-23T14:29:29;84.80;;;32.87;;
10509;SDS011;5303;53.266;10.410;2023-02-23T14:32:03;74.33;;;30.53;;
10509;SDS011;5303;53.266;10.410;2023-02-23T14:34:51;73.57;;;30.80;;
10509;SDS011;5303;53.266;10.410;2023-02-23T14:43:00;81.50;;;30.87;;
10509;SDS011;5303;53.266;10.410;2023-02-23T14:45:27;76.30;;;31.37;;
10509;SDS011;5303;53.266;10.410;2023-02-23T14:47:56;75.87;;;30.77;;
10509;SDS011;5303;53.266;10.410;2023-02-23T14:50:29;82.57;;;31.57;;
10509;SDS011;5303;53.266;10.410;2023-02-23T14:52:56;81.50;;;31.37;;
10509;SDS011;5303;53.266;10.410;2023-02-23T14:55:24;74.20;;;31.40;;
10509;SDS011;5303;53.266;10.410;2023-02-23T14:57:51;83.47;;;31.03;;
10509;SDS011;5303;53.266;10.410;2023-02-23T15:00:40;88.53;;;32.57;;
10509;SDS011;5303;53.266;10.410;2023-02-23T15:03:10;83.87;;;30.60;;
10509;SDS011;5303;53.266;10.410;2023-02-23T15:05:56;77.27;;;30.63;;
10509;SDS011;5303;53.266;10.410;2023-02-23T15:08:24;79.77;;;32.23;;
10509;SDS011;5303;53.266;10.410;2023-02-23T15:13:41;68.20;;;29.93;;
10509;SDS011;5303;53.266;10.410;2023-02-23T15:16:13;71.77;;;29.67;;
10509;SDS011;5303;53.266;10.410;2023-02-23T15:21:55;79.30;;;31.70;;
10509;SDS011;5303;53.266;10.410;2023-02-23T15:24:27;80.03;;;31.57;;
10509;SDS011;5303;53.266;10.410;2023-02-23T15:27:05;81.87;;;30.83;;
10509;SDS011;5303;53.266;10.410;2023-02-23T15:29:31;74.63;;;28.70;;
10509;SDS011;5303;53.266;10.410;2023-02-23T15:32:09;75.70;;;30.13;;
10509;SDS011;5303;53.266;10.410;2023-02-23T15:34:45;67.97;;;28.07;;
10509;SDS011;5303;53.266;10.410;2023-02-23T15:37:13;75.90;;;30.10;;
10509;SDS011;5303;53.266;10.410;2023-02-23T15:40:02;67.40;;;28.03;;
10509;SDS011;5303;53.266;10.410;2023-02-23T15:42:31;70.53;;;28.47;;
10509;SDS011;5303;53.266;10.410;2023-02-23T15:45:15;67.70;;;28.70;;
10509;SDS011;5303;53.266;10.410;2023-02-23T15:47:47;68.07;;;27.20;;
10509;SDS011;5303;53.266;10.410;2023-02-23T15:50:19;60.47;;;24.60;;
10509;SDS011;5303;53.266;10.410;2023-02-23T15:52:59;68.87;;;26.40;;
10509;SDS011;5303;53.266;10.410;2023-02-23T15:55:31;61.77;;;25.60;;
10509;SDS011;5303;53.266;10.410;2023-02-23T15:58:01;61.13;;;26.53;;
10509;SDS011;5303;53.266;10.410;2023-02-23T16:00:39;65.13;;;27.00;;
10509;SDS011;5303;53.266;10.410;2023-02-23T16:03:06;65.50;;;26.70;;
10509;SDS011;5303;53.266;10.410;2023-02-23T16:05:52;67.20;;;26.40;;
10509;SDS011;5303;53.266;10.410;2023-02-23T16:08:25;71.70;;;28.17;;
10509;SDS011;5303;53.266;10.410;2023-02-23T16:10:53;64.27;;;26.37;;
10509;SDS011;5303;53.266;10.410;2023-02-23T16:13:26;64.23;;;28.63;;
10509;SDS011;5303;53.266;10.410;2023-02-23T16:15:52;58.43;;;26.27;;
10509;SDS011;5303;53.266;10.410;2023-02-23T16:18:19;64.83;;;26.50;;
10509;SDS011;5303;53.266;10.410;2023-02-23T16:20:52;64.80;;;26.50;;
10509;SDS011;5303;53.266;10.410;2023-02-23T16:25:55;67.33;;;29.23;;
10509;SDS011;5303;53.266;10.410;2023-02-23T16:28:28;71.87;;;27.90;;
10509;SDS011;5303;53.266;10.410;2023-02-23T16:33:28;71.20;;;28.83;;
10509;SDS011;5303;53.266;10.410;2023-02-23T16:36:09;67.20;;;26.33;;
10509;SDS011;5303;53.266;10.410;2023-02-23T16:38:38;57.73;;;25.27;;
10509;SDS011;5303;53.266;10.410;2023-02-23T16:41:05;69.27;;;25.20;;
10509;SDS011;5303;53.266;10.410;2023-02-23T16:43:41;60.50;;;24.03;;
10509;SDS011;5303;53.266;10.410;2023-02-23T16:46:08;63.83;;;25.53;;
10509;SDS011;5303;53.266;10.410;2023-02-23T16:48:33;60.60;;;23.87;;
10509;SDS011;5303;53.266;10.410;2023-02-23T16:50:58;61.87;;;24.87;;
10509;SDS011;5303;53.266;10.410;2023-02-23T16:53:24;56.93;;;22.33;;